Startpagina
METAR-TAF:

METAR-TAF

Vliegvelden :

Santa Marta, Colombia

breedte: 11-08N, lengte: 074-14W, hoogte: 4 m

Actueel weer

Dit bericht is 29 minuten geleden gemaakt, om 18:00 UTC
Wind 5 kt uit het westzuidwesten
Temperatuur 32°C
Vochtigheid 63%
Druk 1012 hPa
Zicht 10 km of meer
Weinig wolken op 1700 ft
Gebroken wolken op 20000 ft

METAR: SKSM 191800Z 25005KT 9999 FEW017 BKN200 32/24 A2987

Tijdstip: 13:29 (18:29 UTC)


TAF: ontbreekt

Waarnemingen en weersverwachtingen van meer dan 4000 vliegvelden (METAR en TAF).

De beschikbare stations zijn de gele en rode punten op de kaart.

Ga met uw muis naar het station om de naam te zien.

Klik dan om waarnemingen en weersverwachtingen te zien.

kaart wijzigen: klik op de groene knoppen met een zwart kruis om in te zoomen, op de groene knop met een streepje om uit te zoomen of op de groene pijlen voor aangrenzende kaarten.


METAR-TAF: